Dorothy Ann — WDE8761 — position and weather

sailwx.info

Track history (hours):
 
Tides and Currents Weather Stations Pressure Air Temp Water Temp Dewpoint Dewpoint Depression Visibility Wind Speed Wind Dir Waves Ship Positions

Dorothy Ann

Owner: THE INTERLAKE STEAMSHIP COMPANY, Middleburg Heights, OH. More information available from US FCC via Universal Licensing System and Coast Guard Vessel Documentation Center.

Last reported at 2015-Jul-29 17:00 UTC. Time now 2015-Jul-29 17:58 UTC.
Position N 42°54' W 082°30'.

Length 215 m; draft 5.9 m.

Type: Cargo ship. MMSI: 367409260.

Wind from 200 at 14 knots

Barometer 1013.7 mb
Air temperature 28.8 ° C
Water temperature 42.6 ° C

Date/timePositionNaut miles runAvg speedWind from/ knotsBaromVisibWave heightAir tempDewpointWater temp
2015-Jul-29 17:00N 42°54' W 082°30'1312.8 200 / 141013.7 28.8 42.6
2015-Jul-29 16:00N 43°06' W 082°24'6 6.0 190 / 121013.7 28.2 42.6
2015-Jul-29 15:00N 43°12' W 082°24'1212.0 170 / 111014.0 23.8 42.6
2015-Jul-29 14:00N 43°24' W 082°24'6 6.0 190 / 101014.7 23.0 42.6
2015-Jul-29 13:00N 43°30' W 082°24'113 8.7 180 / 111014.7 22.9 42.6
2015-Jul-29 00:00N 45°18' W 083°12'8 8.4 160 / 191014.3 23.2 42.6
2015-Jul-28 23:00N 45°18' W 083°24'0 0.0 160 / 131014.7 26.1 42.6
2015-Jul-28 22:00N 45°18' W 083°24'0 0.0 150 / 161014.7 26.5 42.6
2015-Jul-28 20:00N 45°18' W 083°24'0 0.0 160 / 151016.0 26.6 42.6
2015-Jul-28 19:00N 45°18' W 083°24'0 0.0 120 / 111016.4 24.4 42.6
2015-Jul-28 15:00N 45°18' W 083°24'0 0.0 070 / 51017.4 24.3 42.6
2015-Jul-28 14:00N 45°18' W 083°24'0 0.0 030 / 21017.4 25.3 42.6
2015-Jul-28 13:00N 45°18' W 083°24'0 0.0 240 1017.4 26.7 42.6
2015-Jul-28 12:00N 45°18' W 083°24'0 0.0 270 / 51017.4 23.8 42.6
2015-Jul-28 11:00N 45°18' W 083°24'0 0.0 260 / 71017.4 21.3 42.6
2015-Jul-28 10:00N 45°18' W 083°24'0 0.0 240 / 51016.7 21.6 42.6
2015-Jul-28 09:00N 45°18' W 083°24'0 0.0 250 / 61016.7 21.2 42.6
2015-Jul-28 07:00N 45°18' W 083°24'0 0.0 280 / 61017.1 22.8 42.6
2015-Jul-28 06:00N 45°18' W 083°24'0 0.0 250 / 81017.1 23.3 42.6
2015-Jul-28 05:00N 45°18' W 083°24'0 0.0 270 / 51017.4 24.0 42.6
2015-Jul-28 04:00N 45°18' W 083°24'0 0.0 270 / 61017.1 24.6 42.6
2015-Jul-28 03:00N 45°18' W 083°24'0 0.0 280 / 61016.7 24.7 42.6
2015-Jul-28 02:00N 45°18' W 083°24'0 0.0 240 / 41016.4 26.2 42.6
2015-Jul-28 01:00N 45°18' W 083°24'0 0.0 200 / 71016.0 26.2 42.6
2015-Jul-28 00:00N 45°18' W 083°24'0 0.0 150 / 71015.7 26.3 42.6
2015-Jul-27 23:00N 45°18' W 083°24'0 0.0 150 / 41016.0 26.5 42.6
2015-Jul-27 22:00N 45°18' W 083°24'0 0.0 120 / 51016.4 25.0 42.6
2015-Jul-27 21:00N 45°18' W 083°24'0 0.0 350 / 91016.7 26.1 42.6
2015-Jul-27 20:00N 45°18' W 083°24'0 0.0 350 / 71016.7 25.5 42.6
2015-Jul-27 19:00N 45°18' W 083°24'1010.4 340 / 81016.7 23.8 42.6
2015-Jul-27 18:00N 45°12' W 083°12'7 7.3 360 / 111017.1 22.6 42.6
2015-Jul-27 17:00N 45°06' W 083°06'1312.7 010 / 61017.4 21.6 42.6
2015-Jul-27 16:00N 44°54' W 083°00'6 6.0 330 / 51017.4 22.2 42.6
2015-Jul-27 15:00N 44°48' W 083°00'1312.7 320 / 71017.4 22.4 42.6
2015-Jul-27 14:00N 44°36' W 082°54'38 9.6 280 / 81017.1 22.0 42.6
2015-Jul-27 10:00N 44°00' W 082°36'1312.8 250 / 91016.4 20.6 42.6
2015-Jul-27 09:00N 43°48' W 082°30'6 6.0 250 / 71016.0 20.1 42.6
2015-Jul-27 08:00N 43°42' W 082°30'1212.0 260 / 71015.7 20.3 42.6
2015-Jul-27 07:00N 43°30' W 082°30'19 9.3 260 / 71015.7 20.2 42.6
2015-Jul-27 05:00N 43°12' W 082°24'1212.0 290 / 41016.0 20.8 42.6
2015-Jul-27 04:00N 43°00' W 082°24'7 7.4 350 / 21016.0 20.4 42.6
2015-Jul-27 03:00N 42°54' W 082°30'0 0.0 030 / 21016.0 20.9 42.6
2015-Jul-27 02:00N 42°54' W 082°30'0 0.0 030 / 21015.7 22.7 42.6
2015-Jul-27 00:00N 42°54' W 082°30'0 0.0 040 / 81015.7 24.7 42.6
2015-Jul-26 23:00N 42°54' W 082°30'6 6.0 020 / 111015.0 25.0 42.6
2015-Jul-26 22:00N 42°48' W 082°30'6 6.0 020 / 111015.0 27.5 42.6
2015-Jul-26 21:00N 42°42' W 082°30'6 2.0 040 / 111015.4 29.4 42.6
2015-Jul-26 18:00N 42°36' W 082°30'1110.7 220 / 51016.4 26.2 42.6
2015-Jul-26 17:00N 42°30' W 082°42'25 6.3 200 / 71016.2 23.9 42.6
2015-Jul-26 13:00N 42°12' W 083°06'6 6.0 070 / 61015.5 23.3 42.6
2015-Jul-26 12:00N 42°06' W 083°06'13 6.4 070 / 51015.2 21.6 42.6
2015-Jul-26 10:00N 41°54' W 083°12'15 7.5 070 / 151013.4 25.3 42.6
2015-Jul-26 08:00N 41°42' W 083°24'4 4.5 090 / 61013.4 22.2 42.6
2015-Jul-26 07:00N 41°42' W 083°30'0 0.0 250 / 41013.4 23.0 42.6
2015-Jul-26 06:00N 41°42' W 083°30'0 0.0 240 / 61013.0 23.5 42.6
2015-Jul-26 04:00N 41°42' W 083°30'0 0.0 260 / 91013.7 23.1 42.6
2015-Jul-26 03:00N 41°42' W 083°30'0 0.0 240 / 101013.4 26.9 42.6
2015-Jul-26 01:00N 41°42' W 083°30'0 0.0 240 / 71012.4 28.5 42.6
2015-Jul-26 00:00N 41°42' W 083°30'0 0.0 240 / 131012.4 29.2 42.6
2015-Jul-25 22:00N 41°42' W 083°30'0 0.0 240 / 141012.4 29.1 42.6
2015-Jul-25 21:00N 41°42' W 083°30'0 0.0 240 / 131012.7 28.9 42.6
2015-Jul-25 20:00N 41°42' W 083°30'0 0.0 240 / 121013.4 28.7 42.6
2015-Jul-25 18:00N 41°42' W 083°30'0 0.0 250 / 111014.4 27.5 42.6
2015-Jul-25 17:00N 41°42' W 083°30'0 0.0 260 / 141014.7 27.3 42.6
2015-Jul-25 16:00N 41°42' W 083°30'0 0.0 240 / 111015.1 27.2 42.6
2015-Jul-25 15:00N 41°42' W 083°30'0 0.0 230 / 141014.7 26.3 42.6
2015-Jul-25 14:00N 41°42' W 083°30'0 0.0 230 / 101014.7 26.0 42.6
2015-Jul-25 13:00N 41°42' W 083°30'0 0.0 230 / 81015.1 24.2 42.6
2015-Jul-25 12:00N 41°42' W 083°30'0 0.0 240 / 101015.4 23.5 42.6
2015-Jul-25 11:00N 41°42' W 083°30'0 0.0 250 / 41016.1 22.5 42.6
2015-Jul-25 10:00N 41°42' W 083°30'0 0.0 250 / 51015.4 22.0 42.6
2015-Jul-25 09:00N 41°42' W 083°30'0 0.0 180 / 31014.4 21.9 42.6
2015-Jul-25 07:00N 41°42' W 083°30'0 0.0 230 / 51015.4 23.3 42.6
2015-Jul-25 05:00N 41°42' W 083°30'0 0.0 210 / 41015.1 24.6 42.6
2015-Jul-25 03:00N 41°42' W 083°30'0 0.0 180 / 11015.4 26.4 42.6
2015-Jul-25 02:00N 41°42' W 083°30'0 0.0 200 / 11015.4 26.9 42.6
2015-Jul-25 01:00N 41°42' W 083°30'0 0.0 260 / 41014.7 28.0 42.6
2015-Jul-25 00:00N 41°42' W 083°30'0 0.0 260 / 31015.1 29.1 42.6
2015-Jul-24 23:00N 41°42' W 083°30'0 0.0 240 / 51015.1 28.9 42.6
2015-Jul-24 22:00N 41°42' W 083°30'0 0.0 250 / 61015.4 29.2 42.6
2015-Jul-24 21:00N 41°42' W 083°30'0 0.0 240 / 91015.4 29.0 42.6
2015-Jul-24 20:00N 41°42' W 083°30'0 0.0 250 / 31015.7 29.0 42.6
2015-Jul-24 18:00N 41°42' W 083°30'0 0.0 060 / 41016.8 28.0 42.6
2015-Jul-24 17:00N 41°42' W 083°30'0 0.0 260 / 31017.1 27.4 42.6
2015-Jul-24 16:00N 41°42' W 083°30'0 0.0 250 / 21017.8 26.7 42.6
2015-Jul-23 21:00N 41°42' W 083°30'0 0.0 290 / 41015.7 27.0 42.6
2015-Jul-23 20:00N 41°42' W 083°30'0 0.0 050 / 21016.1 26.8 42.6
2015-Jul-23 19:00N 41°42' W 083°30'0 0.0 030 / 21016.4 26.3 42.6
2015-Jul-23 18:00N 41°42' W 083°30'0 0.0 030 / 51016.8 25.1 42.6
2015-Jul-23 17:00N 41°42' W 083°30'0 0.0 020 / 41017.1 24.3 42.6
2015-Jul-23 16:00N 41°42' W 083°30'0 0.0 040 / 61017.1 23.6 42.6
2015-Jul-23 15:00N 41°42' W 083°30'0 0.0 040 / 61017.4 23.2 42.6
2015-Jul-23 14:00N 41°42' W 083°30'0 0.0 020 / 41017.1 21.4 42.6
2015-Jul-23 13:00N 41°42' W 083°30'0 0.0 290 / 21017.1 20.4 42.6
2015-Jul-23 12:00N 41°42' W 083°30'0 0.0 280 / 51017.1 19.1 42.6
2015-Jul-23 11:00N 41°42' W 083°30'0 0.0 270 / 21016.4 18.0 42.6
2015-Jul-23 10:00N 41°42' W 083°30'0 0.0 260 / 21016.4 17.9 42.6
2015-Jul-23 09:00N 41°42' W 083°30'0 0.0 250 / 41015.7 18.2 42.6
2015-Jul-23 08:00N 41°42' W 083°30'0 0.0 290 / 31016.1 18.4 42.6
2015-Jul-23 07:00N 41°42' W 083°30'0 0.0 260 / 41016.1 19.4 42.6
2015-Jul-23 06:00N 41°42' W 083°30'0 0.0 250 / 31016.1 20.1 42.6
2015-Jul-23 05:00N 41°42' W 083°30'0 0.0 240 / 31015.7 20.3 42.6
2015-Jul-23 04:00N 41°42' W 083°30'0 0.0 260 / 11015.4 21.0 42.6
2015-Jul-23 03:00N 41°42' W 083°30'0 0.0 260 / 11015.1 21.9 42.6
2015-Jul-23 02:00N 41°42' W 083°30'0 0.0 340 / 41014.7 22.2 42.6
2015-Jul-23 01:00N 41°42' W 083°30'0 0.0 330 / 51014.4 22.9 42.6
2015-Jul-23 00:00N 41°42' W 083°30'0 0.0 340 / 81014.7 23.9 42.6
2015-Jul-22 23:00N 41°42' W 083°30'0 0.0 330 / 101014.4 24.1 42.6
2015-Jul-22 22:00N 41°42' W 083°30'0 0.0 330 / 101014.4 25.3 42.6
2015-Jul-22 21:00N 41°42' W 083°30'0 0.0 320 / 101014.0 25.3 42.6
2015-Jul-22 20:00N 41°42' W 083°30'0 0.0 310 / 71014.4 25.4 42.6
2015-Jul-22 19:00N 41°42' W 083°30'0 0.0 290 / 121014.7 24.3 42.6
2015-Jul-22 18:00N 41°42' W 083°30'0 0.0 240 / 101015.1 23.9 42.6
2015-Jul-22 17:00N 41°42' W 083°30'0 0.0 290 / 91015.4 23.5 42.6
2015-Jul-22 16:00N 41°42' W 083°30'0 0.0 070 / 11015.4 24.0 42.6
2015-Jul-22 15:00N 41°42' W 083°30'0 0.0 350 / 41015.4 22.2 42.6
2015-Jul-22 14:00N 41°42' W 083°30'0 0.0 330 / 61015.1 20.9 42.6
2015-Jul-22 13:00N 41°42' W 083°30'0 0.0 340 / 91015.4 19.6 42.6
2015-Jul-22 12:00N 41°42' W 083°30'0 0.0 330 / 81014.7 17.8 42.6
2015-Jul-22 11:00N 41°42' W 083°30'0 0.0 340 / 61014.7 16.8 42.6
2015-Jul-22 10:00N 41°42' W 083°30'0 0.0 320 / 61014.4 16.5 42.6
2015-Jul-22 09:00N 41°42' W 083°30'0 0.0 320 / 41014.0 17.2 42.6
2015-Jul-22 08:00N 41°42' W 083°30'0 0.0 330 / 81013.7 17.8 42.6
2015-Jul-22 07:00N 41°42' W 083°30'0 0.0 320 / 61013.4 18.1 42.6
2015-Jul-22 06:00N 41°42' W 083°30'0 0.0 310 / 71013.0 18.5 42.6
2015-Jul-22 05:00N 41°42' W 083°30'0 0.0 300 / 71012.7 19.3 42.6
2015-Jul-22 04:00N 41°42' W 083°30'0 0.0 300 / 81012.4 20.2 42.6
2015-Jul-22 03:00N 41°42' W 083°30'0 0.0 290 / 71012.0 21.1 42.6
2015-Jul-22 02:00N 41°42' W 083°30'0 0.0 300 / 111011.3 22.7 42.6
2015-Jul-22 01:00N 41°42' W 083°30'0 0.0 310 / 61010.7 24.2 42.6
2015-Jul-22 00:00N 41°42' W 083°30'0 0.0 300 / 61010.3 25.1 42.6
2015-Jul-21 23:00N 41°42' W 083°30'0 0.0 320 / 71010.3 25.7 42.6
2015-Jul-21 22:00N 41°42' W 083°30'0 0.0 300 / 121010.3 25.1 42.6
2015-Jul-21 21:00N 41°42' W 083°30'0 0.0 310 / 51010.7 25.4 42.6
2015-Jul-21 20:00N 41°42' W 083°30'0 0.0 340 / 121010.7 25.1 42.6
2015-Jul-21 19:00N 41°42' W 083°30'0 0.0 290 / 91010.7 24.6 42.6
2015-Jul-21 18:00N 41°42' W 083°30'0 0.0 320 / 101010.3 24.7 42.6
2015-Jul-21 17:00N 41°42' W 083°30'4 4.5 300 / 71010.3 24.5 42.6
2015-Jul-21 16:00N 41°42' W 083°24'11 5.4 040 / 21010.3 23.5 42.6
2015-Jul-21 14:00N 41°48' W 083°12'29 3.7 020 / 141009.3 21.1 42.6
2015-Jul-21 06:00N 41°36' W 082°36'7 7.5 220 / 81006.6 25.2 42.6
2015-Jul-21 05:00N 41°30' W 082°42'0 0.0 250 / 61007.3 24.7 42.6
2015-Jul-21 04:00N 41°30' W 082°42'0 0.0 270 / 61007.3 24.8 42.6
2015-Jul-21 03:00N 41°30' W 082°42'0 0.0 280 / 71007.6 25.2 42.6
2015-Jul-21 01:00N 41°30' W 082°42'0 0.0 260 / 51008.0 25.8 42.6
2015-Jul-21 00:00N 41°30' W 082°42'0 0.0 280 / 21007.6 25.4 42.6
2015-Jul-20 23:00N 41°30' W 082°42'0 0.0 280 / 71007.6 26.7 42.6
2015-Jul-20 21:00N 41°30' W 082°42'0 0.0 280 / 121008.6 27.8 42.6
2015-Jul-20 18:00N 41°30' W 082°42'0 0.0 280 / 81009.6 26.4 42.6
2015-Jul-20 17:00N 41°30' W 082°42'0 0.0 230 / 91010.3 25.5 42.6
2015-Jul-20 16:00N 41°30' W 082°42'6 3.0 230 / 91010.7 25.1 42.6
2015-Jul-20 14:00N 41°36' W 082°42'0 0.0 270 / 31011.3 23.8 42.6
2015-Jul-20 13:00N 41°36' W 082°42'0 0.0 270 / 61011.3 21.8 42.6
2015-Jul-20 12:00N 41°36' W 082°42'4 2.2 270 / 81011.7 21.4 42.6
2015-Jul-20 10:00N 41°36' W 082°36'4 4.5 310 / 101011.0 22.9 42.6
2015-Jul-20 09:00N 41°36' W 082°30'4 4.5 300 / 111011.0 23.2 42.6
2015-Jul-20 08:00N 41°36' W 082°24'4 4.5 310 / 91011.0 24.0 42.6
2015-Jul-20 07:00N 41°36' W 082°18'4 4.5 300 / 111011.0 23.5 42.6
2015-Jul-20 06:00N 41°36' W 082°12'4 4.5 280 / 111011.3 23.5 42.6
2015-Jul-20 05:00N 41°36' W 082°06'4 4.5 280 / 151011.0 24.2 42.6
2015-Jul-20 04:00N 41°36' W 082°00'4 4.5 270 / 181010.7 24.2 42.6
2015-Jul-20 03:00N 41°36' W 081°54'7 7.5 260 / 161010.7 24.7 42.6
2015-Jul-20 02:00N 41°30' W 081°48'4 4.5 240 / 161009.6 25.4 42.6
2015-Jul-20 01:00N 41°30' W 081°42'0 0.0 220 / 21009.6 27.5 42.6
2015-Jul-20 00:00N 41°30' W 081°42'0 0.0 240 / 61010.0 27.0 42.6
2015-Jul-19 23:00N 41°30' W 081°42'0 0.0 240 / 81009.3 28.3 42.6
2015-Jul-19 22:00N 41°30' W 081°42'0 0.0 260 / 61009.6 27.6 42.6
2015-Jul-19 21:00N 41°30' W 081°42'0 0.0 260 / 101010.3 30.2 42.6
2015-Jul-19 19:00N 41°30' W 081°42'0 0.0 220 / 71010.7 32.1 42.6
2015-Jul-19 18:00N 41°30' W 081°42'0 0.0 270 / 61011.7 31.7 42.6
2015-Jul-19 17:00N 41°30' W 081°42'   290 / 41011.7 27.4 42.6
Track history (hours):
 
Tides and Currents Weather Stations Pressure Air Temp Water Temp Dewpoint Dewpoint Depression Visibility Wind Speed Wind Dir Waves Ship Positions

Dorothy Ann

Owner: THE INTERLAKE STEAMSHIP COMPANY, Middleburg Heights, OH. More information available from US FCC via Universal Licensing System and Coast Guard Vessel Documentation Center.

Last reported at 2015-Jul-29 17:00 UTC. Time now 2015-Jul-29 17:58 UTC.
Position N 42°54' W 082°30'.

Length 215 m; draft 5.9 m.

Type: Cargo ship. MMSI: 367409260.

Wind from 200 at 14 knots

Barometer 1013.7 mb
Air temperature 28.8 ° C
Water temperature 42.6 ° C

Date/timePositionNaut miles runAvg speedWind from/ knotsBaromVisibWave heightAir tempDewpointWater temp
2015-Jul-29 17:00N 42°54' W 082°30'1312.8 200 / 141013.7 28.8 42.6
2015-Jul-29 16:00N 43°06' W 082°24'6 6.0 190 / 121013.7 28.2 42.6
2015-Jul-29 15:00N 43°12' W 082°24'1212.0 170 / 111014.0 23.8 42.6
2015-Jul-29 14:00N 43°24' W 082°24'6 6.0 190 / 101014.7 23.0 42.6
2015-Jul-29 13:00N 43°30' W 082°24'113 8.7 180 / 111014.7 22.9 42.6
2015-Jul-29 00:00N 45°18' W 083°12'8 8.4 160 / 191014.3 23.2 42.6
2015-Jul-28 23:00N 45°18' W 083°24'0 0.0 160 / 131014.7 26.1 42.6
2015-Jul-28 22:00N 45°18' W 083°24'0 0.0 150 / 161014.7 26.5 42.6
2015-Jul-28 20:00N 45°18' W 083°24'0 0.0 160 / 151016.0 26.6 42.6
2015-Jul-28 19:00N 45°18' W 083°24'0 0.0 120 / 111016.4 24.4 42.6
2015-Jul-28 15:00N 45°18' W 083°24'0 0.0 070 / 51017.4 24.3 42.6
2015-Jul-28 14:00N 45°18' W 083°24'0 0.0 030 / 21017.4 25.3 42.6
2015-Jul-28 13:00N 45°18' W 083°24'0 0.0 240 1017.4 26.7 42.6
2015-Jul-28 12:00N 45°18' W 083°24'0 0.0 270 / 51017.4 23.8 42.6
2015-Jul-28 11:00N 45°18' W 083°24'0 0.0 260 / 71017.4 21.3 42.6
2015-Jul-28 10:00N 45°18' W 083°24'0 0.0 240 / 51016.7 21.6 42.6
2015-Jul-28 09:00N 45°18' W 083°24'0 0.0 250 / 61016.7 21.2 42.6
2015-Jul-28 07:00N 45°18' W 083°24'0 0.0 280 / 61017.1 22.8 42.6
2015-Jul-28 06:00N 45°18' W 083°24'0 0.0 250 / 81017.1 23.3 42.6
2015-Jul-28 05:00N 45°18' W 083°24'0 0.0 270 / 51017.4 24.0 42.6
2015-Jul-28 04:00N 45°18' W 083°24'0 0.0 270 / 61017.1 24.6 42.6
2015-Jul-28 03:00N 45°18' W 083°24'0 0.0 280 / 61016.7 24.7 42.6
2015-Jul-28 02:00N 45°18' W 083°24'0 0.0 240 / 41016.4 26.2 42.6
2015-Jul-28 01:00N 45°18' W 083°24'0 0.0 200 / 71016.0 26.2 42.6
2015-Jul-28 00:00N 45°18' W 083°24'0 0.0 150 / 71015.7 26.3 42.6
2015-Jul-27 23:00N 45°18' W 083°24'0 0.0 150 / 41016.0 26.5 42.6
2015-Jul-27 22:00N 45°18' W 083°24'0 0.0 120 / 51016.4 25.0 42.6
2015-Jul-27 21:00N 45°18' W 083°24'0 0.0 350 / 91016.7 26.1 42.6
2015-Jul-27 20:00N 45°18' W 083°24'0 0.0 350 / 71016.7 25.5 42.6
2015-Jul-27 19:00N 45°18' W 083°24'1010.4 340 / 81016.7 23.8 42.6
2015-Jul-27 18:00N 45°12' W 083°12'7 7.3 360 / 111017.1 22.6 42.6
2015-Jul-27 17:00N 45°06' W 083°06'1312.7 010 / 61017.4 21.6 42.6
2015-Jul-27 16:00N 44°54' W 083°00'6 6.0 330 / 51017.4 22.2 42.6
2015-Jul-27 15:00N 44°48' W 083°00'1312.7 320 / 71017.4 22.4 42.6
2015-Jul-27 14:00N 44°36' W 082°54'38 9.6 280 / 81017.1 22.0 42.6
2015-Jul-27 10:00N 44°00' W 082°36'1312.8 250 / 91016.4 20.6 42.6
2015-Jul-27 09:00N 43°48' W 082°30'6 6.0 250 / 71016.0 20.1 42.6
2015-Jul-27 08:00N 43°42' W 082°30'1212.0 260 / 71015.7 20.3 42.6
2015-Jul-27 07:00N 43°30' W 082°30'19 9.3 260 / 71015.7 20.2 42.6
2015-Jul-27 05:00N 43°12' W 082°24'1212.0 290 / 41016.0 20.8 42.6
2015-Jul-27 04:00N 43°00' W 082°24'7 7.4 350 / 21016.0 20.4 42.6
2015-Jul-27 03:00N 42°54' W 082°30'0 0.0 030 / 21016.0 20.9 42.6
2015-Jul-27 02:00N 42°54' W 082°30'0 0.0 030 / 21015.7 22.7 42.6
2015-Jul-27 00:00N 42°54' W 082°30'0 0.0 040 / 81015.7 24.7 42.6
2015-Jul-26 23:00N 42°54' W 082°30'6 6.0 020 / 111015.0 25.0 42.6
2015-Jul-26 22:00N 42°48' W 082°30'6 6.0 020 / 111015.0 27.5 42.6
2015-Jul-26 21:00N 42°42' W 082°30'6 2.0 040 / 111015.4 29.4 42.6
2015-Jul-26 18:00N 42°36' W 082°30'1110.7 220 / 51016.4 26.2 42.6
2015-Jul-26 17:00N 42°30' W 082°42'25 6.3 200 / 71016.2 23.9 42.6
2015-Jul-26 13:00N 42°12' W 083°06'6 6.0 070 / 61015.5 23.3 42.6
2015-Jul-26 12:00N 42°06' W 083°06'13 6.4 070 / 51015.2 21.6 42.6
2015-Jul-26 10:00N 41°54' W 083°12'15 7.5 070 / 151013.4 25.3 42.6
2015-Jul-26 08:00N 41°42' W 083°24'4 4.5 090 / 61013.4 22.2 42.6
2015-Jul-26 07:00N 41°42' W 083°30'0 0.0 250 / 41013.4 23.0 42.6
2015-Jul-26 06:00N 41°42' W 083°30'0 0.0 240 / 61013.0 23.5 42.6
2015-Jul-26 04:00N 41°42' W 083°30'0 0.0 260 / 91013.7 23.1 42.6
2015-Jul-26 03:00N 41°42' W 083°30'0 0.0 240 / 101013.4 26.9 42.6
2015-Jul-26 01:00N 41°42' W 083°30'0 0.0 240 / 71012.4 28.5 42.6
2015-Jul-26 00:00N 41°42' W 083°30'0 0.0 240 / 131012.4 29.2 42.6
2015-Jul-25 22:00N 41°42' W 083°30'0 0.0 240 / 141012.4 29.1 42.6
2015-Jul-25 21:00N 41°42' W 083°30'0 0.0 240 / 131012.7 28.9 42.6
2015-Jul-25 20:00N 41°42' W 083°30'0 0.0 240 / 121013.4 28.7 42.6
2015-Jul-25 18:00N 41°42' W 083°30'0 0.0 250 / 111014.4 27.5 42.6
2015-Jul-25 17:00N 41°42' W 083°30'0 0.0 260 / 141014.7 27.3 42.6
2015-Jul-25 16:00N 41°42' W 083°30'0 0.0 240 / 111015.1 27.2 42.6
2015-Jul-25 15:00N 41°42' W 083°30'0 0.0 230 / 141014.7 26.3 42.6
2015-Jul-25 14:00N 41°42' W 083°30'0 0.0 230 / 101014.7 26.0 42.6
2015-Jul-25 13:00N 41°42' W 083°30'0 0.0 230 / 81015.1 24.2 42.6
2015-Jul-25 12:00N 41°42' W 083°30'0 0.0 240 / 101015.4 23.5 42.6
2015-Jul-25 11:00N 41°42' W 083°30'0 0.0 250 / 41016.1 22.5 42.6
2015-Jul-25 10:00N 41°42' W 083°30'0 0.0 250 / 51015.4 22.0 42.6
2015-Jul-25 09:00N 41°42' W 083°30'0 0.0 180 / 31014.4 21.9 42.6
2015-Jul-25 07:00N 41°42' W 083°30'0 0.0 230 / 51015.4 23.3 42.6
2015-Jul-25 05:00N 41°42' W 083°30'0 0.0 210 / 41015.1 24.6 42.6
2015-Jul-25 03:00N 41°42' W 083°30'0 0.0 180 / 11015.4 26.4 42.6
2015-Jul-25 02:00N 41°42' W 083°30'0 0.0 200 / 11015.4 26.9 42.6
2015-Jul-25 01:00N 41°42' W 083°30'0 0.0 260 / 41014.7 28.0 42.6
2015-Jul-25 00:00N 41°42' W 083°30'0 0.0 260 / 31015.1 29.1 42.6
2015-Jul-24 23:00N 41°42' W 083°30'0 0.0 240 / 51015.1 28.9 42.6
2015-Jul-24 22:00N 41°42' W 083°30'0 0.0 250 / 61015.4 29.2 42.6
2015-Jul-24 21:00N 41°42' W 083°30'0 0.0 240 / 91015.4 29.0 42.6
2015-Jul-24 20:00N 41°42' W 083°30'0 0.0 250 / 31015.7 29.0 42.6
2015-Jul-24 18:00N 41°42' W 083°30'0 0.0 060 / 41016.8 28.0 42.6
2015-Jul-24 17:00N 41°42' W 083°30'0 0.0 260 / 31017.1 27.4 42.6
2015-Jul-24 16:00N 41°42' W 083°30'0 0.0 250 / 21017.8 26.7 42.6
2015-Jul-23 21:00N 41°42' W 083°30'0 0.0 290 / 41015.7 27.0 42.6
2015-Jul-23 20:00N 41°42' W 083°30'0 0.0 050 / 21016.1 26.8 42.6
2015-Jul-23 19:00N 41°42' W 083°30'0 0.0 030 / 21016.4 26.3 42.6
2015-Jul-23 18:00N 41°42' W 083°30'0 0.0 030 / 51016.8 25.1 42.6
2015-Jul-23 17:00N 41°42' W 083°30'0 0.0 020 / 41017.1 24.3 42.6
2015-Jul-23 16:00N 41°42' W 083°30'0 0.0 040 / 61017.1 23.6 42.6
2015-Jul-23 15:00N 41°42' W 083°30'0 0.0 040 / 61017.4 23.2 42.6
2015-Jul-23 14:00N 41°42' W 083°30'0 0.0 020 / 41017.1 21.4 42.6
2015-Jul-23 13:00N 41°42' W 083°30'0 0.0 290 / 21017.1 20.4 42.6
2015-Jul-23 12:00N 41°42' W 083°30'0 0.0 280 / 51017.1 19.1 42.6
2015-Jul-23 11:00N 41°42' W 083°30'0 0.0 270 / 21016.4 18.0 42.6
2015-Jul-23 10:00N 41°42' W 083°30'0 0.0 260 / 21016.4 17.9 42.6
2015-Jul-23 09:00N 41°42' W 083°30'0 0.0 250 / 41015.7 18.2 42.6
2015-Jul-23 08:00N 41°42' W 083°30'0 0.0 290 / 31016.1 18.4 42.6
2015-Jul-23 07:00N 41°42' W 083°30'0 0.0 260 / 41016.1 19.4 42.6
2015-Jul-23 06:00N 41°42' W 083°30'0 0.0 250 / 31016.1 20.1 42.6
2015-Jul-23 05:00N 41°42' W 083°30'0 0.0 240 / 31015.7 20.3 42.6
2015-Jul-23 04:00N 41°42' W 083°30'0 0.0 260 / 11015.4 21.0 42.6
2015-Jul-23 03:00N 41°42' W 083°30'0 0.0 260 / 11015.1 21.9 42.6
2015-Jul-23 02:00N 41°42' W 083°30'0 0.0 340 / 41014.7 22.2 42.6
2015-Jul-23 01:00N 41°42' W 083°30'0 0.0 330 / 51014.4 22.9 42.6
2015-Jul-23 00:00N 41°42' W 083°30'0 0.0 340 / 81014.7 23.9 42.6
2015-Jul-22 23:00N 41°42' W 083°30'0 0.0 330 / 101014.4 24.1 42.6
2015-Jul-22 22:00N 41°42' W 083°30'0 0.0 330 / 101014.4 25.3 42.6
2015-Jul-22 21:00N 41°42' W 083°30'0 0.0 320 / 101014.0 25.3 42.6
2015-Jul-22 20:00N 41°42' W 083°30'0 0.0 310 / 71014.4 25.4 42.6
2015-Jul-22 19:00N 41°42' W 083°30'0 0.0 290 / 121014.7 24.3 42.6
2015-Jul-22 18:00N 41°42' W 083°30'0 0.0 240 / 101015.1 23.9 42.6
2015-Jul-22 17:00N 41°42' W 083°30'0 0.0 290 / 91015.4 23.5 42.6
2015-Jul-22 16:00N 41°42' W 083°30'0 0.0 070 / 11015.4 24.0 42.6
2015-Jul-22 15:00N 41°42' W 083°30'0 0.0 350 / 41015.4 22.2 42.6
2015-Jul-22 14:00N 41°42' W 083°30'0 0.0 330 / 61015.1 20.9 42.6
2015-Jul-22 13:00N 41°42' W 083°30'0 0.0 340 / 91015.4 19.6 42.6
2015-Jul-22 12:00N 41°42' W 083°30'0 0.0 330 / 81014.7 17.8 42.6
2015-Jul-22 11:00N 41°42' W 083°30'0 0.0 340 / 61014.7 16.8 42.6
2015-Jul-22 10:00N 41°42' W 083°30'0 0.0 320 / 61014.4 16.5 42.6
2015-Jul-22 09:00N 41°42' W 083°30'0 0.0 320 / 41014.0 17.2 42.6
2015-Jul-22 08:00N 41°42' W 083°30'0 0.0 330 / 81013.7 17.8 42.6
2015-Jul-22 07:00N 41°42' W 083°30'0 0.0 320 / 61013.4 18.1 42.6
2015-Jul-22 06:00N 41°42' W 083°30'0 0.0 310 / 71013.0 18.5 42.6
2015-Jul-22 05:00N 41°42' W 083°30'0 0.0 300 / 71012.7 19.3 42.6
2015-Jul-22 04:00N 41°42' W 083°30'0 0.0 300 / 81012.4 20.2 42.6
2015-Jul-22 03:00N 41°42' W 083°30'0 0.0 290 / 71012.0 21.1 42.6
2015-Jul-22 02:00N 41°42' W 083°30'0 0.0 300 / 111011.3 22.7 42.6
2015-Jul-22 01:00N 41°42' W 083°30'0 0.0 310 / 61010.7 24.2 42.6
2015-Jul-22 00:00N 41°42' W 083°30'0 0.0 300 / 61010.3 25.1 42.6
2015-Jul-21 23:00N 41°42' W 083°30'0 0.0 320 / 71010.3 25.7 42.6
2015-Jul-21 22:00N 41°42' W 083°30'0 0.0 300 / 121010.3 25.1 42.6
2015-Jul-21 21:00N 41°42' W 083°30'0 0.0 310 / 51010.7 25.4 42.6
2015-Jul-21 20:00N 41°42' W 083°30'0 0.0 340 / 121010.7 25.1 42.6
2015-Jul-21 19:00N 41°42' W 083°30'0 0.0 290 / 91010.7 24.6 42.6
2015-Jul-21 18:00N 41°42' W 083°30'0 0.0 320 / 101010.3 24.7 42.6
2015-Jul-21 17:00N 41°42' W 083°30'4 4.5 300 / 71010.3 24.5 42.6
2015-Jul-21 16:00N 41°42' W 083°24'11 5.4 040 / 21010.3 23.5 42.6
2015-Jul-21 14:00N 41°48' W 083°12'29 3.7 020 / 141009.3 21.1 42.6
2015-Jul-21 06:00N 41°36' W 082°36'7 7.5 220 / 81006.6 25.2 42.6
2015-Jul-21 05:00N 41°30' W 082°42'0 0.0 250 / 61007.3 24.7 42.6
2015-Jul-21 04:00N 41°30' W 082°42'0 0.0 270 / 61007.3 24.8 42.6
2015-Jul-21 03:00N 41°30' W 082°42'0 0.0 280 / 71007.6 25.2 42.6
2015-Jul-21 01:00N 41°30' W 082°42'0 0.0 260 / 51008.0 25.8 42.6
2015-Jul-21 00:00N 41°30' W 082°42'0 0.0 280 / 21007.6 25.4 42.6
2015-Jul-20 23:00N 41°30' W 082°42'0 0.0 280 / 71007.6 26.7 42.6
2015-Jul-20 21:00N 41°30' W 082°42'0 0.0 280 / 121008.6 27.8 42.6
2015-Jul-20 18:00N 41°30' W 082°42'0 0.0 280 / 81009.6 26.4 42.6
2015-Jul-20 17:00N 41°30' W 082°42'0 0.0 230 / 91010.3 25.5 42.6
2015-Jul-20 16:00N 41°30' W 082°42'6 3.0 230 / 91010.7 25.1 42.6
2015-Jul-20 14:00N 41°36' W 082°42'0 0.0 270 / 31011.3 23.8 42.6
2015-Jul-20 13:00N 41°36' W 082°42'0 0.0 270 / 61011.3 21.8 42.6
2015-Jul-20 12:00N 41°36' W 082°42'4 2.2 270 / 81011.7 21.4 42.6
2015-Jul-20 10:00N 41°36' W 082°36'4 4.5 310 / 101011.0 22.9 42.6
2015-Jul-20 09:00N 41°36' W 082°30'4 4.5 300 / 111011.0 23.2 42.6
2015-Jul-20 08:00N 41°36' W 082°24'4 4.5 310 / 91011.0 24.0 42.6
2015-Jul-20 07:00N 41°36' W 082°18'4 4.5 300 / 111011.0 23.5 42.6
2015-Jul-20 06:00N 41°36' W 082°12'4 4.5 280 / 111011.3 23.5 42.6
2015-Jul-20 05:00N 41°36' W 082°06'4 4.5 280 / 151011.0 24.2 42.6
2015-Jul-20 04:00N 41°36' W 082°00'4 4.5 270 / 181010.7 24.2 42.6
2015-Jul-20 03:00N 41°36' W 081°54'7 7.5 260 / 161010.7 24.7 42.6
2015-Jul-20 02:00N 41°30' W 081°48'4 4.5 240 / 161009.6 25.4 42.6
2015-Jul-20 01:00N 41°30' W 081°42'0 0.0 220 / 21009.6 27.5 42.6
2015-Jul-20 00:00N 41°30' W 081°42'0 0.0 240 / 61010.0 27.0 42.6
2015-Jul-19 23:00N 41°30' W 081°42'0 0.0 240 / 81009.3 28.3 42.6
2015-Jul-19 22:00N 41°30' W 081°42'0 0.0 260 / 61009.6 27.6 42.6
2015-Jul-19 21:00N 41°30' W 081°42'0 0.0 260 / 101010.3 30.2 42.6
2015-Jul-19 19:00N 41°30' W 081°42'0 0.0 220 / 71010.7 32.1 42.6
2015-Jul-19 18:00N 41°30' W 081°42'0 0.0 270 / 61011.7 31.7 42.6
2015-Jul-19 17:00N 41°30' W 081°42'   290 / 41011.7 27.4 42.6

Dump ship's entire track history